sensor_id;sensor_type;location;lat;lon;timestamp;temperature;humidity
18365;DHT22;9309;52.126;11.616;2022-10-16T00:00:30;15.30;85.50
18365;DHT22;9309;52.126;11.616;2022-10-16T00:02:58;15.30;85.60
18365;DHT22;9309;52.126;11.616;2022-10-16T00:05:25;15.30;86.00
18365;DHT22;9309;52.126;11.616;2022-10-16T00:07:51;15.20;86.10
18365;DHT22;9309;52.126;11.616;2022-10-16T00:10:18;15.20;86.30
18365;DHT22;9309;52.126;11.616;2022-10-16T00:12:45;15.40;85.50
18365;DHT22;9309;52.126;11.616;2022-10-16T00:15:12;15.30;85.40
18365;DHT22;9309;52.126;11.616;2022-10-16T00:17:39;15.30;85.50
18365;DHT22;9309;52.126;11.616;2022-10-16T00:20:08;15.20;85.50
18365;DHT22;9309;52.126;11.616;2022-10-16T00:22:34;15.30;85.30
18365;DHT22;9309;52.126;11.616;2022-10-16T00:25:01;15.30;84.80
18365;DHT22;9309;52.126;11.616;2022-10-16T00:27:28;15.40;84.00
18365;DHT22;9309;52.126;11.616;2022-10-16T00:29:55;15.40;83.50
18365;DHT22;9309;52.126;11.616;2022-10-16T00:32:22;15.50;83.50
18365;DHT22;9309;52.126;11.616;2022-10-16T00:34:48;15.40;83.00
18365;DHT22;9309;52.126;11.616;2022-10-16T00:37:16;15.30;83.50
18365;DHT22;9309;52.126;11.616;2022-10-16T00:39:43;15.30;83.40
18365;DHT22;9309;52.126;11.616;2022-10-16T00:42:14;15.20;84.00
18365;DHT22;9309;52.126;11.616;2022-10-16T00:44:52;15.20;84.20
18365;DHT22;9309;52.126;11.616;2022-10-16T00:47:22;15.10;84.40
18365;DHT22;9309;52.126;11.616;2022-10-16T00:49:53;15.10;84.40
18365;DHT22;9309;52.126;11.616;2022-10-16T00:52:24;15.10;84.20
18365;DHT22;9309;52.126;11.616;2022-10-16T00:54:52;15.20;83.80
18365;DHT22;9309;52.126;11.616;2022-10-16T00:57:20;15.10;83.60
18365;DHT22;9309;52.126;11.616;2022-10-16T00:59:47;15.10;84.20
18365;DHT22;9309;52.126;11.616;2022-10-16T01:02:15;15.00;84.60
18365;DHT22;9309;52.126;11.616;2022-10-16T01:04:43;15.10;83.70
18365;DHT22;9309;52.126;11.616;2022-10-16T01:07:14;15.30;83.10
18365;DHT22;9309;52.126;11.616;2022-10-16T01:09:58;15.20;83.20
18365;DHT22;9309;52.126;11.616;2022-10-16T01:12:33;15.30;83.20
18365;DHT22;9309;52.126;11.616;2022-10-16T01:15:08;15.40;82.70
18365;DHT22;9309;52.126;11.616;2022-10-16T01:17:43;15.50;81.70
18365;DHT22;9309;52.126;11.616;2022-10-16T01:20:16;15.40;82.20
18365;DHT22;9309;52.126;11.616;2022-10-16T01:23:04;15.40;82.00
18365;DHT22;9309;52.126;11.616;2022-10-16T01:25:42;15.40;81.50
18365;DHT22;9309;52.126;11.616;2022-10-16T01:28:15;15.20;82.60
18365;DHT22;9309;52.126;11.616;2022-10-16T01:30:44;15.20;82.70
18365;DHT22;9309;52.126;11.616;2022-10-16T01:33:16;15.30;82.20
18365;DHT22;9309;52.126;11.616;2022-10-16T01:35:47;15.40;81.50
18365;DHT22;9309;52.126;11.616;2022-10-16T01:38:20;15.10;82.70
18365;DHT22;9309;52.126;11.616;2022-10-16T01:40:51;15.00;83.50
18365;DHT22;9309;52.126;11.616;2022-10-16T01:43:26;15.00;83.70
18365;DHT22;9309;52.126;11.616;2022-10-16T01:45:55;14.90;84.10
18365;DHT22;9309;52.126;11.616;2022-10-16T01:48:23;15.00;83.50
18365;DHT22;9309;52.126;11.616;2022-10-16T01:50:54;15.10;82.70
18365;DHT22;9309;52.126;11.616;2022-10-16T01:53:22;15.20;82.10
18365;DHT22;9309;52.126;11.616;2022-10-16T01:55:52;15.20;82.50
18365;DHT22;9309;52.126;11.616;2022-10-16T01:58:23;15.20;82.20
18365;DHT22;9309;52.126;11.616;2022-10-16T02:00:52;15.20;82.20
18365;DHT22;9309;52.126;11.616;2022-10-16T02:03:22;15.10;82.50
18365;DHT22;9309;52.126;11.616;2022-10-16T02:05:52;15.10;82.40
18365;DHT22;9309;52.126;11.616;2022-10-16T02:08:21;15.10;82.50
18365;DHT22;9309;52.126;11.616;2022-10-16T02:10:48;15.00;82.60
18365;DHT22;9309;52.126;11.616;2022-10-16T02:13:19;14.70;84.40
18365;DHT22;9309;52.126;11.616;2022-10-16T02:15:49;14.60;85.10
18365;DHT22;9309;52.126;11.616;2022-10-16T02:18:20;14.80;83.70
18365;DHT22;9309;52.126;11.616;2022-10-16T02:20:52;14.80;83.50
18365;DHT22;9309;52.126;11.616;2022-10-16T02:23:24;14.80;83.50
18365;DHT22;9309;52.126;11.616;2022-10-16T02:25:56;14.80;83.40
18365;DHT22;9309;52.126;11.616;2022-10-16T02:28:29;14.80;83.30
18365;DHT22;9309;52.126;11.616;2022-10-16T02:31:03;14.70;83.70
18365;DHT22;9309;52.126;11.616;2022-10-16T02:33:32;14.60;84.10
18365;DHT22;9309;52.126;11.616;2022-10-16T02:35:59;14.30;85.90
18365;DHT22;9309;52.126;11.616;2022-10-16T02:38:27;14.50;85.00
18365;DHT22;9309;52.126;11.616;2022-10-16T02:40:55;14.40;84.80
18365;DHT22;9309;52.126;11.616;2022-10-16T02:43:22;14.50;84.80
18365;DHT22;9309;52.126;11.616;2022-10-16T02:45:49;14.50;84.50
18365;DHT22;9309;52.126;11.616;2022-10-16T02:48:17;14.60;84.00
18365;DHT22;9309;52.126;11.616;2022-10-16T02:50:44;14.50;84.20
18365;DHT22;9309;52.126;11.616;2022-10-16T02:53:11;14.50;84.60
18365;DHT22;9309;52.126;11.616;2022-10-16T02:55:37;14.60;84.30
18365;DHT22;9309;52.126;11.616;2022-10-16T02:58:04;14.40;84.70
18365;DHT22;9309;52.126;11.616;2022-10-16T03:00:31;14.50;84.90
18365;DHT22;9309;52.126;11.616;2022-10-16T03:02:58;14.50;84.70
18365;DHT22;9309;52.126;11.616;2022-10-16T03:05:26;14.50;84.60
18365;DHT22;9309;52.126;11.616;2022-10-16T03:07:52;14.60;84.50
18365;DHT22;9309;52.126;11.616;2022-10-16T03:10:19;14.60;84.60
18365;DHT22;9309;52.126;11.616;2022-10-16T03:12:46;14.70;84.30
18365;DHT22;9309;52.126;11.616;2022-10-16T03:15:13;14.70;84.10
18365;DHT22;9309;52.126;11.616;2022-10-16T03:17:40;14.80;84.00
18365;DHT22;9309;52.126;11.616;2022-10-16T03:20:07;14.60;83.80
18365;DHT22;9309;52.126;11.616;2022-10-16T03:22:35;14.30;85.10
18365;DHT22;9309;52.126;11.616;2022-10-16T03:25:02;14.40;85.20
18365;DHT22;9309;52.126;11.616;2022-10-16T03:27:29;14.60;84.40
18365;DHT22;9309;52.126;11.616;2022-10-16T03:29:56;14.70;84.00
18365;DHT22;9309;52.126;11.616;2022-10-16T03:32:23;14.60;84.10
18365;DHT22;9309;52.126;11.616;2022-10-16T03:34:50;14.70;83.80
18365;DHT22;9309;52.126;11.616;2022-10-16T03:37:18;14.70;83.60
18365;DHT22;9309;52.126;11.616;2022-10-16T03:39:46;14.80;83.30
18365;DHT22;9309;52.126;11.616;2022-10-16T03:42:13;14.80;83.30
18365;DHT22;9309;52.126;11.616;2022-10-16T03:44:39;14.70;83.40
18365;DHT22;9309;52.126;11.616;2022-10-16T03:47:06;14.70;83.40
18365;DHT22;9309;52.126;11.616;2022-10-16T03:49:33;14.70;83.50
18365;DHT22;9309;52.126;11.616;2022-10-16T03:51:59;14.80;83.30
18365;DHT22;9309;52.126;11.616;2022-10-16T03:54:26;14.80;83.30
18365;DHT22;9309;52.126;11.616;2022-10-16T03:56:54;14.80;83.30
18365;DHT22;9309;52.126;11.616;2022-10-16T03:59:20;14.80;82.80
18365;DHT22;9309;52.126;11.616;2022-10-16T04:01:47;14.70;83.20
18365;DHT22;9309;52.126;11.616;2022-10-16T04:04:14;14.60;83.40
18365;DHT22;9309;52.126;11.616;2022-10-16T04:06:40;14.50;83.80
18365;DHT22;9309;52.126;11.616;2022-10-16T04:09:07;14.50;84.10
18365;DHT22;9309;52.126;11.616;2022-10-16T04:11:33;14.70;82.90
18365;DHT22;9309;52.126;11.616;2022-10-16T04:14:01;14.70;82.90
18365;DHT22;9309;52.126;11.616;2022-10-16T04:16:28;14.80;82.90
18365;DHT22;9309;52.126;11.616;2022-10-16T04:18:54;14.70;83.20
18365;DHT22;9309;52.126;11.616;2022-10-16T04:21:21;14.90;82.40
18365;DHT22;9309;52.126;11.616;2022-10-16T04:23:48;14.80;82.50
18365;DHT22;9309;52.126;11.616;2022-10-16T04:26:14;14.80;82.60
18365;DHT22;9309;52.126;11.616;2022-10-16T04:28:41;14.80;82.80
18365;DHT22;9309;52.126;11.616;2022-10-16T04:31:09;14.80;82.90
18365;DHT22;9309;52.126;11.616;2022-10-16T04:33:36;14.70;82.90
18365;DHT22;9309;52.126;11.616;2022-10-16T04:36:02;14.70;82.90
18365;DHT22;9309;52.126;11.616;2022-10-16T04:38:29;14.80;82.60
18365;DHT22;9309;52.126;11.616;2022-10-16T04:40:56;14.70;83.00
18365;DHT22;9309;52.126;11.616;2022-10-16T04:43:22;14.70;83.00
18365;DHT22;9309;52.126;11.616;2022-10-16T04:45:49;14.80;82.80
18365;DHT22;9309;52.126;11.616;2022-10-16T04:48:18;14.90;82.60
18365;DHT22;9309;52.126;11.616;2022-10-16T04:50:44;14.90;82.50
18365;DHT22;9309;52.126;11.616;2022-10-16T04:53:11;14.90;82.70
18365;DHT22;9309;52.126;11.616;2022-10-16T04:55:38;14.80;82.90
18365;DHT22;9309;52.126;11.616;2022-10-16T04:58:05;14.80;83.00
18365;DHT22;9309;52.126;11.616;2022-10-16T05:00:31;14.80;83.00
18365;DHT22;9309;52.126;11.616;2022-10-16T05:02:58;14.70;83.20
18365;DHT22;9309;52.126;11.616;2022-10-16T05:05:27;14.70;82.90
18365;DHT22;9309;52.126;11.616;2022-10-16T05:07:54;14.60;83.30
18365;DHT22;9309;52.126;11.616;2022-10-16T05:10:20;14.50;83.70
18365;DHT22;9309;52.126;11.616;2022-10-16T05:12:47;14.40;84.40
18365;DHT22;9309;52.126;11.616;2022-10-16T05:15:13;14.20;85.30
18365;DHT22;9309;52.126;11.616;2022-10-16T05:17:40;14.10;85.40
18365;DHT22;9309;52.126;11.616;2022-10-16T05:20:07;14.10;85.70
18365;DHT22;9309;52.126;11.616;2022-10-16T05:22:35;14.00;86.10
18365;DHT22;9309;52.126;11.616;2022-10-16T05:25:01;13.90;86.40
18365;DHT22;9309;52.126;11.616;2022-10-16T05:27:28;13.80;86.80
18365;DHT22;9309;52.126;11.616;2022-10-16T05:29:55;14.00;86.00
18365;DHT22;9309;52.126;11.616;2022-10-16T05:32:21;14.10;85.80
18365;DHT22;9309;52.126;11.616;2022-10-16T05:34:48;14.10;85.50
18365;DHT22;9309;52.126;11.616;2022-10-16T05:37:14;14.00;85.70
18365;DHT22;9309;52.126;11.616;2022-10-16T05:39:42;14.10;85.70
18365;DHT22;9309;52.126;11.616;2022-10-16T05:42:09;14.00;86.10
18365;DHT22;9309;52.126;11.616;2022-10-16T05:44:36;14.00;86.10
18365;DHT22;9309;52.126;11.616;2022-10-16T05:47:02;14.00;86.10
18365;DHT22;9309;52.126;11.616;2022-10-16T05:49:29;13.90;86.10
18365;DHT22;9309;52.126;11.616;2022-10-16T05:51:56;13.90;86.40
18365;DHT22;9309;52.126;11.616;2022-10-16T05:54:22;13.90;86.40
18365;DHT22;9309;52.126;11.616;2022-10-16T05:56:50;14.00;86.00
18365;DHT22;9309;52.126;11.616;2022-10-16T05:59:17;14.20;85.40
18365;DHT22;9309;52.126;11.616;2022-10-16T06:01:43;14.20;85.30
18365;DHT22;9309;52.126;11.616;2022-10-16T06:04:10;14.00;86.30
18365;DHT22;9309;52.126;11.616;2022-10-16T06:06:36;14.00;86.50
18365;DHT22;9309;52.126;11.616;2022-10-16T06:09:03;14.00;86.70
18365;DHT22;9309;52.126;11.616;2022-10-16T06:11:31;14.10;86.60
18365;DHT22;9309;52.126;11.616;2022-10-16T06:13:59;14.20;86.00
18365;DHT22;9309;52.126;11.616;2022-10-16T06:16:27;14.20;86.30
18365;DHT22;9309;52.126;11.616;2022-10-16T06:18:54;14.30;85.90
18365;DHT22;9309;52.126;11.616;2022-10-16T06:21:23;14.40;85.90
18365;DHT22;9309;52.126;11.616;2022-10-16T06:23:51;14.40;86.00
18365;DHT22;9309;52.126;11.616;2022-10-16T06:26:18;14.60;85.30
18365;DHT22;9309;52.126;11.616;2022-10-16T06:28:46;14.60;85.10
18365;DHT22;9309;52.126;11.616;2022-10-16T06:31:14;14.70;84.70
18365;DHT22;9309;52.126;11.616;2022-10-16T06:33:40;14.60;84.70
18365;DHT22;9309;52.126;11.616;2022-10-16T06:36:08;14.60;85.00
18365;DHT22;9309;52.126;11.616;2022-10-16T06:38:35;14.70;85.00
18365;DHT22;9309;52.126;11.616;2022-10-16T06:41:02;14.80;84.50
18365;DHT22;9309;52.126;11.616;2022-10-16T06:43:29;14.80;84.70
18365;DHT22;9309;52.126;11.616;2022-10-16T06:45:57;14.80;85.00
18365;DHT22;9309;52.126;11.616;2022-10-16T06:48:26;14.60;86.00
18365;DHT22;9309;52.126;11.616;2022-10-16T06:50:56;14.60;86.20
18365;DHT22;9309;52.126;11.616;2022-10-16T06:53:23;14.60;86.60
18365;DHT22;9309;52.126;11.616;2022-10-16T06:55:50;14.70;86.30
18365;DHT22;9309;52.126;11.616;2022-10-16T06:58:18;14.80;86.30
18365;DHT22;9309;52.126;11.616;2022-10-16T07:00:45;15.00;85.80
18365;DHT22;9309;52.126;11.616;2022-10-16T07:03:11;15.20;85.30
18365;DHT22;9309;52.126;11.616;2022-10-16T07:05:40;15.20;84.90
18365;DHT22;9309;52.126;11.616;2022-10-16T07:08:07;15.40;84.80
18365;DHT22;9309;52.126;11.616;2022-10-16T07:10:34;15.40;84.30
18365;DHT22;9309;52.126;11.616;2022-10-16T07:13:01;15.60;84.30
18365;DHT22;9309;52.126;11.616;2022-10-16T07:15:28;15.60;83.80
18365;DHT22;9309;52.126;11.616;2022-10-16T07:17:54;15.70;83.50
18365;DHT22;9309;52.126;11.616;2022-10-16T07:20:21;15.70;83.40
18365;DHT22;9309;52.126;11.616;2022-10-16T07:22:49;15.70;83.20
18365;DHT22;9309;52.126;11.616;2022-10-16T07:25:16;15.70;83.30
18365;DHT22;9309;52.126;11.616;2022-10-16T07:27:43;15.70;83.40
18365;DHT22;9309;52.126;11.616;2022-10-16T07:30:10;15.70;83.60
18365;DHT22;9309;52.126;11.616;2022-10-16T07:32:37;15.60;83.70
18365;DHT22;9309;52.126;11.616;2022-10-16T07:35:04;15.50;84.60
18365;DHT22;9309;52.126;11.616;2022-10-16T07:37:30;15.70;83.60
18365;DHT22;9309;52.126;11.616;2022-10-16T07:39:59;15.80;83.30
18365;DHT22;9309;52.126;11.616;2022-10-16T07:42:27;15.80;83.00
18365;DHT22;9309;52.126;11.616;2022-10-16T07:44:53;15.90;82.50
18365;DHT22;9309;52.126;11.616;2022-10-16T07:47:20;16.00;82.00
18365;DHT22;9309;52.126;11.616;2022-10-16T07:49:47;16.00;81.90
18365;DHT22;9309;52.126;11.616;2022-10-16T07:52:14;16.00;81.70
18365;DHT22;9309;52.126;11.616;2022-10-16T07:54:41;16.00;81.40
18365;DHT22;9309;52.126;11.616;2022-10-16T07:57:09;16.00;81.50
18365;DHT22;9309;52.126;11.616;2022-10-16T07:59:35;16.10;81.20
18365;DHT22;9309;52.126;11.616;2022-10-16T08:02:02;16.00;81.20
18365;DHT22;9309;52.126;11.616;2022-10-16T08:04:29;15.80;81.50
18365;DHT22;9309;52.126;11.616;2022-10-16T08:06:55;15.70;82.10
18365;DHT22;9309;52.126;11.616;2022-10-16T08:09:22;15.70;82.40
18365;DHT22;9309;52.126;11.616;2022-10-16T08:11:49;15.50;83.40
18365;DHT22;9309;52.126;11.616;2022-10-16T08:14:18;15.30;84.20
18365;DHT22;9309;52.126;11.616;2022-10-16T08:16:45;15.30;84.70
18365;DHT22;9309;52.126;11.616;2022-10-16T08:19:11;15.30;84.60
18365;DHT22;9309;52.126;11.616;2022-10-16T08:21:38;15.50;85.90
18365;DHT22;9309;52.126;11.616;2022-10-16T08:24:04;16.40;82.50
18365;DHT22;9309;52.126;11.616;2022-10-16T08:26:31;17.20;77.30
18365;DHT22;9309;52.126;11.616;2022-10-16T08:28:58;17.90;74.50
18365;DHT22;9309;52.126;11.616;2022-10-16T08:31:26;17.90;72.50
18365;DHT22;9309;52.126;11.616;2022-10-16T08:33:52;17.80;73.10
18365;DHT22;9309;52.126;11.616;2022-10-16T08:36:19;17.70;72.90
18365;DHT22;9309;52.126;11.616;2022-10-16T08:38:47;17.90;71.80
18365;DHT22;9309;52.126;11.616;2022-10-16T08:41:17;17.50;72.80
18365;DHT22;9309;52.126;11.616;2022-10-16T08:43:59;17.20;74.10
18365;DHT22;9309;52.126;11.616;2022-10-16T08:46:35;17.00;74.80
18365;DHT22;9309;52.126;11.616;2022-10-16T08:49:05;17.10;74.20
18365;DHT22;9309;52.126;11.616;2022-10-16T08:51:34;17.10;74.20
18365;DHT22;9309;52.126;11.616;2022-10-16T08:54:02;17.10;74.00
18365;DHT22;9309;52.126;11.616;2022-10-16T08:56:29;17.20;73.10
18365;DHT22;9309;52.126;11.616;2022-10-16T08:58:57;17.20;73.60
18365;DHT22;9309;52.126;11.616;2022-10-16T09:01:25;17.40;72.90
18365;DHT22;9309;52.126;11.616;2022-10-16T09:04:03;17.20;73.30
18365;DHT22;9309;52.126;11.616;2022-10-16T09:06:35;17.10;73.00
18365;DHT22;9309;52.126;11.616;2022-10-16T09:09:14;17.20;73.60
18365;DHT22;9309;52.126;11.616;2022-10-16T09:11:45;17.40;72.70
18365;DHT22;9309;52.126;11.616;2022-10-16T09:14:31;17.70;71.90
18365;DHT22;9309;52.126;11.616;2022-10-16T09:17:04;17.70;71.10
18365;DHT22;9309;52.126;11.616;2022-10-16T09:19:36;17.90;70.70
18365;DHT22;9309;52.126;11.616;2022-10-16T09:22:09;17.80;70.40
18365;DHT22;9309;52.126;11.616;2022-10-16T09:24:36;17.70;70.30
18365;DHT22;9309;52.126;11.616;2022-10-16T09:27:03;17.60;70.70
18365;DHT22;9309;52.126;11.616;2022-10-16T09:29:30;17.50;70.80
18365;DHT22;9309;52.126;11.616;2022-10-16T09:31:56;17.60;70.80
18365;DHT22;9309;52.126;11.616;2022-10-16T09:34:34;17.60;70.50
18365;DHT22;9309;52.126;11.616;2022-10-16T09:37:04;17.80;70.10
18365;DHT22;9309;52.126;11.616;2022-10-16T09:39:43;17.90;68.40
18365;DHT22;9309;52.126;11.616;2022-10-16T09:42:10;17.90;68.80
18365;DHT22;9309;52.126;11.616;2022-10-16T09:44:38;18.10;68.70
18365;DHT22;9309;52.126;11.616;2022-10-16T09:47:05;18.40;66.90
18365;DHT22;9309;52.126;11.616;2022-10-16T09:49:38;18.60;66.50
18365;DHT22;9309;52.126;11.616;2022-10-16T09:52:10;18.80;65.90
18365;DHT22;9309;52.126;11.616;2022-10-16T09:54:37;19.10;64.80
18365;DHT22;9309;52.126;11.616;2022-10-16T09:57:14;19.10;65.30
18365;DHT22;9309;52.126;11.616;2022-10-16T09:59:45;18.80;65.70
18365;DHT22;9309;52.126;11.616;2022-10-16T10:02:12;19.00;65.70
18365;DHT22;9309;52.126;11.616;2022-10-16T10:04:41;19.30;63.80
18365;DHT22;9309;52.126;11.616;2022-10-16T10:07:17;19.40;62.70
18365;DHT22;9309;52.126;11.616;2022-10-16T10:09:45;19.50;62.10
18365;DHT22;9309;52.126;11.616;2022-10-16T10:12:16;19.50;61.80
18365;DHT22;9309;52.126;11.616;2022-10-16T10:14:44;19.60;61.70
18365;DHT22;9309;52.126;11.616;2022-10-16T10:17:13;19.80;61.00
18365;DHT22;9309;52.126;11.616;2022-10-16T10:19:41;19.70;60.60
18365;DHT22;9309;52.126;11.616;2022-10-16T10:22:21;19.60;60.70
18365;DHT22;9309;52.126;11.616;2022-10-16T10:24:55;19.50;61.60
18365;DHT22;9309;52.126;11.616;2022-10-16T10:27:23;19.30;61.20
18365;DHT22;9309;52.126;11.616;2022-10-16T10:29:53;19.20;60.90
18365;DHT22;9309;52.126;11.616;2022-10-16T10:32:25;19.30;61.10
18365;DHT22;9309;52.126;11.616;2022-10-16T10:35:01;19.40;61.10
18365;DHT22;9309;52.126;11.616;2022-10-16T10:37:34;19.60;60.00
18365;DHT22;9309;52.126;11.616;2022-10-16T10:40:05;19.50;59.80
18365;DHT22;9309;52.126;11.616;2022-10-16T10:42:35;19.20;59.80
18365;DHT22;9309;52.126;11.616;2022-10-16T10:45:11;19.20;60.60
18365;DHT22;9309;52.126;11.616;2022-10-16T10:47:44;19.50;59.20
18365;DHT22;9309;52.126;11.616;2022-10-16T10:50:14;20.00;57.10
18365;DHT22;9309;52.126;11.616;2022-10-16T10:52:50;19.90;55.70
18365;DHT22;9309;52.126;11.616;2022-10-16T10:55:21;19.60;57.00
18365;DHT22;9309;52.126;11.616;2022-10-16T10:57:56;19.50;57.50
18365;DHT22;9309;52.126;11.616;2022-10-16T11:00:27;19.40;57.20
18365;DHT22;9309;52.126;11.616;2022-10-16T11:02:55;20.00;56.50
18365;DHT22;9309;52.126;11.616;2022-10-16T11:05:27;20.00;56.40
18365;DHT22;9309;52.126;11.616;2022-10-16T11:07:58;19.90;56.30
18365;DHT22;9309;52.126;11.616;2022-10-16T11:10:27;19.90;56.30
18365;DHT22;9309;52.126;11.616;2022-10-16T11:12:56;19.90;55.40
18365;DHT22;9309;52.126;11.616;2022-10-16T11:15:25;20.20;54.70
18365;DHT22;9309;52.126;11.616;2022-10-16T11:17:53;20.20;54.30
18365;DHT22;9309;52.126;11.616;2022-10-16T11:20:22;20.50;54.60
18365;DHT22;9309;52.126;11.616;2022-10-16T11:22:51;20.90;53.60
18365;DHT22;9309;52.126;11.616;2022-10-16T11:25:21;21.20;51.30
18365;DHT22;9309;52.126;11.616;2022-10-16T11:27:49;21.10;50.90
18365;DHT22;9309;52.126;11.616;2022-10-16T11:30:18;20.80;51.60
18365;DHT22;9309;52.126;11.616;2022-10-16T11:32:50;20.70;52.10
18365;DHT22;9309;52.126;11.616;2022-10-16T11:35:19;20.40;52.10
18365;DHT22;9309;52.126;11.616;2022-10-16T11:37:48;20.00;52.60
18365;DHT22;9309;52.126;11.616;2022-10-16T11:40:19;19.70;53.80
18365;DHT22;9309;52.126;11.616;2022-10-16T11:42:48;19.40;53.90
18365;DHT22;9309;52.126;11.616;2022-10-16T11:45:21;19.20;53.90
18365;DHT22;9309;52.126;11.616;2022-10-16T11:47:51;18.90;54.40
18365;DHT22;9309;52.126;11.616;2022-10-16T11:50:22;18.90;54.80
18365;DHT22;9309;52.126;11.616;2022-10-16T11:52:51;19.20;53.90
18365;DHT22;9309;52.126;11.616;2022-10-16T11:55:20;19.30;53.50
18365;DHT22;9309;52.126;11.616;2022-10-16T11:57:49;19.00;53.70
18365;DHT22;9309;52.126;11.616;2022-10-16T12:00:19;19.00;54.00
18365;DHT22;9309;52.126;11.616;2022-10-16T12:02:54;18.90;54.20
18365;DHT22;9309;52.126;11.616;2022-10-16T12:05:28;19.60;52.90
18365;DHT22;9309;52.126;11.616;2022-10-16T12:08:06;20.50;49.70
18365;DHT22;9309;52.126;11.616;2022-10-16T12:10:35;21.10;48.90
18365;DHT22;9309;52.126;11.616;2022-10-16T12:13:04;23.30;43.70
18365;DHT22;9309;52.126;11.616;2022-10-16T12:15:33;24.60;41.20
18365;DHT22;9309;52.126;11.616;2022-10-16T12:18:00;25.30;39.40
18365;DHT22;9309;52.126;11.616;2022-10-16T12:20:28;24.90;39.60
18365;DHT22;9309;52.126;11.616;2022-10-16T12:22:59;23.50;41.30
18365;DHT22;9309;52.126;11.616;2022-10-16T12:25:29;21.90;44.60
18365;DHT22;9309;52.126;11.616;2022-10-16T12:28:00;21.40;45.80
18365;DHT22;9309;52.126;11.616;2022-10-16T12:30:31;21.00;46.20
18365;DHT22;9309;52.126;11.616;2022-10-16T12:33:00;20.70;46.90
18365;DHT22;9309;52.126;11.616;2022-10-16T12:35:30;21.10;47.00
18365;DHT22;9309;52.126;11.616;2022-10-16T12:38:07;21.20;47.10
18365;DHT22;9309;52.126;11.616;2022-10-16T12:40:36;21.90;45.90
18365;DHT22;9309;52.126;11.616;2022-10-16T12:43:35;24.00;42.00
18365;DHT22;9309;52.126;11.616;2022-10-16T12:46:18;25.80;38.20
18365;DHT22;9309;52.126;11.616;2022-10-16T12:48:47;26.50;36.10
18365;DHT22;9309;52.126;11.616;2022-10-16T12:51:23;24.30;39.70
18365;DHT22;9309;52.126;11.616;2022-10-16T12:53:58;23.90;40.30
18365;DHT22;9309;52.126;11.616;2022-10-16T12:56:35;22.70;42.90
18365;DHT22;9309;52.126;11.616;2022-10-16T12:59:11;21.60;45.20
18365;DHT22;9309;52.126;11.616;2022-10-16T13:01:55;21.80;45.30
18365;DHT22;9309;52.126;11.616;2022-10-16T13:04:47;22.50;43.10
18365;DHT22;9309;52.126;11.616;2022-10-16T13:07:32;22.10;44.50
18365;DHT22;9309;52.126;11.616;2022-10-16T13:10:09;24.30;39.80
18365;DHT22;9309;52.126;11.616;2022-10-16T13:12:54;24.00;39.50
18365;DHT22;9309;52.126;11.616;2022-10-16T13:15:38;24.60;38.80
18365;DHT22;9309;52.126;11.616;2022-10-16T13:18:13;26.70;36.50
18365;DHT22;9309;52.126;11.616;2022-10-16T13:20:55;28.40;32.80
18365;DHT22;9309;52.126;11.616;2022-10-16T13:23:26;28.30;32.20
18365;DHT22;9309;52.126;11.616;2022-10-16T13:26:08;27.50;32.90
18365;DHT22;9309;52.126;11.616;2022-10-16T13:28:38;27.20;33.30
18365;DHT22;9309;52.126;11.616;2022-10-16T13:31:09;28.80;31.30
18365;DHT22;9309;52.126;11.616;2022-10-16T13:33:41;29.00;31.40
18365;DHT22;9309;52.126;11.616;2022-10-16T13:36:18;29.40;30.80
18365;DHT22;9309;52.126;11.616;2022-10-16T13:38:45;30.50;28.60
18365;DHT22;9309;52.126;11.616;2022-10-16T13:41:15;29.40;29.90
18365;DHT22;9309;52.126;11.616;2022-10-16T13:43:44;28.70;30.60
18365;DHT22;9309;52.126;11.616;2022-10-16T13:46:14;27.10;32.90
18365;DHT22;9309;52.126;11.616;2022-10-16T13:48:43;24.90;35.00
18365;DHT22;9309;52.126;11.616;2022-10-16T13:51:13;23.30;37.60
18365;DHT22;9309;52.126;11.616;2022-10-16T13:53:41;22.50;39.60
18365;DHT22;9309;52.126;11.616;2022-10-16T13:56:10;21.60;41.10
18365;DHT22;9309;52.126;11.616;2022-10-16T13:58:38;21.30;42.00
18365;DHT22;9309;52.126;11.616;2022-10-16T14:01:14;21.00;41.10
18365;DHT22;9309;52.126;11.616;2022-10-16T14:03:43;20.80;41.60
18365;DHT22;9309;52.126;11.616;2022-10-16T14:06:13;20.60;42.50
18365;DHT22;9309;52.126;11.616;2022-10-16T14:08:43;20.60;42.80
18365;DHT22;9309;52.126;11.616;2022-10-16T14:11:11;20.60;42.90
18365;DHT22;9309;52.126;11.616;2022-10-16T14:13:42;20.40;43.50
18365;DHT22;9309;52.126;11.616;2022-10-16T14:16:15;20.40;43.80
18365;DHT22;9309;52.126;11.616;2022-10-16T14:18:46;20.40;44.30
18365;DHT22;9309;52.126;11.616;2022-10-16T14:21:16;20.30;43.90
18365;DHT22;9309;52.126;11.616;2022-10-16T14:23:43;20.20;44.10
18365;DHT22;9309;52.126;11.616;2022-10-16T14:26:15;20.00;44.80
18365;DHT22;9309;52.126;11.616;2022-10-16T14:28:43;19.90;44.90
18365;DHT22;9309;52.126;11.616;2022-10-16T14:31:28;20.00;45.10
18365;DHT22;9309;52.126;11.616;2022-10-16T14:33:57;20.00;45.70
18365;DHT22;9309;52.126;11.616;2022-10-16T14:36:25;20.00;45.60
18365;DHT22;9309;52.126;11.616;2022-10-16T14:38:59;19.80;45.80
18365;DHT22;9309;52.126;11.616;2022-10-16T14:41:27;19.80;45.90
18365;DHT22;9309;52.126;11.616;2022-10-16T14:43:55;19.70;45.60
18365;DHT22;9309;52.126;11.616;2022-10-16T14:46:30;19.80;45.30
18365;DHT22;9309;52.126;11.616;2022-10-16T14:49:02;19.80;45.20
18365;DHT22;9309;52.126;11.616;2022-10-16T14:51:30;19.70;46.00
18365;DHT22;9309;52.126;11.616;2022-10-16T14:53:56;19.70;45.70
18365;DHT22;9309;52.126;11.616;2022-10-16T14:56:25;19.70;45.40
18365;DHT22;9309;52.126;11.616;2022-10-16T14:58:53;19.60;45.90
18365;DHT22;9309;52.126;11.616;2022-10-16T15:01:20;19.70;45.70
18365;DHT22;9309;52.126;11.616;2022-10-16T15:03:47;19.70;45.90
18365;DHT22;9309;52.126;11.616;2022-10-16T15:06:16;19.70;45.90
18365;DHT22;9309;52.126;11.616;2022-10-16T15:08:43;19.70;46.20
18365;DHT22;9309;52.126;11.616;2022-10-16T15:11:12;19.50;46.50
18365;DHT22;9309;52.126;11.616;2022-10-16T15:13:40;19.40;47.10
18365;DHT22;9309;52.126;11.616;2022-10-16T15:16:09;19.50;46.80
18365;DHT22;9309;52.126;11.616;2022-10-16T15:18:36;19.50;46.50
18365;DHT22;9309;52.126;11.616;2022-10-16T15:21:03;19.40;47.70
18365;DHT22;9309;52.126;11.616;2022-10-16T15:23:32;19.30;47.90
18365;DHT22;9309;52.126;11.616;2022-10-16T15:25:59;19.30;48.00
18365;DHT22;9309;52.126;11.616;2022-10-16T15:28:25;19.20;47.70
18365;DHT22;9309;52.126;11.616;2022-10-16T15:30:54;19.10;47.80
18365;DHT22;9309;52.126;11.616;2022-10-16T15:33:23;19.00;49.20
18365;DHT22;9309;52.126;11.616;2022-10-16T15:35:53;19.00;48.40
18365;DHT22;9309;52.126;11.616;2022-10-16T15:38:21;18.90;47.80
18365;DHT22;9309;52.126;11.616;2022-10-16T15:40:50;18.90;49.00
18365;DHT22;9309;52.126;11.616;2022-10-16T15:43:17;18.90;48.90